PWSweather.com
Personal Weather Stations
Station Observations
DW1039
Liberty & Fairfield Townships, Hamilton, OH 45011

Liberty & Fairfield TownshipsHamilton, OH 45011

Lat: 39.3933, Lon: -84.477

Elevation: 780

Station Type: Davis Vantage Pro2 (Daytime Fan Aspirated)

http://www.lfweathercenter.com/

High Low Average
Temperature 49.9°F9.9°C 29.0°F-1.7°C 39.1°F3.9°C
Dew Point 30.0°F-1.1°C 22.7°F-5.2°C 26.1°F-3.3°C
Winds 7.0 mph 11.3 kmh Calm Calm 1.0 mph SE1.6 kmh SE
Wind Gusts 10.0 mph16.1 kmh -- 4.0 mph6.4 kmh
Humidity 83% 38% 61%
Pressure 30.31 in1026.4 mb 30.08 in1018.6 mb -
Precipitation 0.00 in0.0 mm - -
Hour Temp Dew Point Humidity Winds Wind Gusts Pressure Precip Precip Rate Daily Precip Total
12:00 AM 35.6°F2.0°C 25.4°F-3.7°C 66% 2.0 mph E3.2 kmh E 7.0 mph11.3 kmh 30.30 in1026.1 mb 0.00 in0.0 mm 0.00 in/hr0.0 mm/hr 0.00 in0.0 mm
12:10 AM 35.9°F2.2°C 25.7°F-3.5°C 66% 4.0 mph ENE6.4 kmh ENE 7.0 mph11.3 kmh 30.30 in1026.1 mb 0.00 in0.0 mm 0.00 in/hr0.0 mm/hr 0.00 in0.0 mm
12:20 AM 35.9°F2.2°C 25.7°F-3.5°C 66% 4.0 mph E6.4 kmh E 10.0 mph16.1 kmh 30.31 in1026.4 mb 0.00 in0.0 mm 0.00 in/hr0.0 mm/hr 0.00 in0.0 mm
12:30 AM 35.8°F2.1°C 25.6°F-3.6°C 66% Calm Calm 6.0 mph9.7 kmh 30.30 in1026.1 mb 0.00 in0.0 mm 0.00 in/hr0.0 mm/hr 0.00 in0.0 mm
12:40 AM 35.9°F2.2°C 25.7°F-3.5°C 66% Calm Calm 4.0 mph6.4 kmh 30.30 in1026.1 mb 0.00 in0.0 mm 0.00 in/hr0.0 mm/hr 0.00 in0.0 mm
12:50 AM 35.9°F2.2°C 25.7°F-3.5°C 66% Calm Calm 3.0 mph4.8 kmh 30.30 in1026.1 mb 0.00 in0.0 mm 0.00 in/hr0.0 mm/hr 0.00 in0.0 mm
01:00 AM 35.9°F2.2°C 25.7°F-3.5°C 66% Calm Calm 5.0 mph8.0 kmh 30.30 in1026.1 mb 0.00 in0.0 mm 0.00 in/hr0.0 mm/hr 0.00 in0.0 mm
01:10 AM 36.0°F2.2°C 25.8°F-3.4°C 66% 1.0 mph NNE1.6 kmh NNE 2.0 mph3.2 kmh 30.30 in1026.1 mb 0.00 in0.0 mm 0.00 in/hr0.0 mm/hr 0.00 in0.0 mm
01:20 AM 35.8°F2.1°C 26.3°F-3.2°C 68% Calm Calm -- 30.31 in1026.4 mb 0.00 in0.0 mm 0.00 in/hr0.0 mm/hr 0.00 in0.0 mm
01:30 AM 35.8°F2.1°C 25.9°F-3.4°C 67% Calm Calm -- 30.31 in1026.4 mb 0.00 in0.0 mm 0.00 in/hr0.0 mm/hr 0.00 in0.0 mm
01:40 AM 35.5°F1.9°C 26.4°F-3.1°C 69% Calm Calm 3.0 mph4.8 kmh 30.31 in1026.4 mb 0.00 in0.0 mm 0.00 in/hr0.0 mm/hr 0.00 in0.0 mm
01:50 AM 35.4°F1.9°C 26.3°F-3.2°C 69% Calm Calm 4.0 mph6.4 kmh 30.30 in1026.1 mb 0.00 in0.0 mm 0.00 in/hr0.0 mm/hr 0.00 in0.0 mm
02:01 AM 35.6°F2.0°C 26.1°F-3.3°C 68% Calm Calm 1.0 mph1.6 kmh 30.30 in1026.1 mb 0.00 in0.0 mm 0.00 in/hr0.0 mm/hr 0.00 in0.0 mm
02:10 AM 35.5°F1.9°C 26.4°F-3.1°C 69% Calm Calm 1.0 mph1.6 kmh 30.30 in1026.1 mb 0.00 in0.0 mm 0.00 in/hr0.0 mm/hr 0.00 in0.0 mm
02:20 AM 35.3°F1.8°C 26.5°F-3.1°C 70% Calm Calm 5.0 mph8.0 kmh 30.30 in1026.1 mb 0.00 in0.0 mm 0.00 in/hr0.0 mm/hr 0.00 in0.0 mm
02:30 AM 35.6°F2.0°C 26.5°F-3.1°C 69% 2.0 mph ENE3.2 kmh ENE 6.0 mph9.7 kmh 30.29 in1025.7 mb 0.00 in0.0 mm 0.00 in/hr0.0 mm/hr 0.00 in0.0 mm
02:40 AM 35.8°F2.1°C 26.3°F-3.2°C 68% 1.0 mph NE1.6 kmh NE 3.0 mph4.8 kmh 30.31 in1026.4 mb 0.00 in0.0 mm 0.00 in/hr0.0 mm/hr 0.00 in0.0 mm
02:50 AM 35.8°F2.1°C 26.3°F-3.2°C 68% Calm Calm 4.0 mph6.4 kmh 30.30 in1026.1 mb 0.00 in0.0 mm 0.00 in/hr0.0 mm/hr 0.00 in0.0 mm
03:00 AM 35.5°F1.9°C 26.4°F-3.1°C 69% 3.0 mph NE4.8 kmh NE 4.0 mph6.4 kmh 30.30 in1026.1 mb 0.00 in0.0 mm 0.00 in/hr0.0 mm/hr 0.00 in0.0 mm
03:10 AM 35.4°F1.9°C 26.6°F-3.0°C 70% Calm Calm 4.0 mph6.4 kmh 30.30 in1026.1 mb 0.00 in0.0 mm 0.00 in/hr0.0 mm/hr 0.00 in0.0 mm
03:20 AM 35.5°F1.9°C 26.4°F-3.1°C 69% Calm Calm 5.0 mph8.0 kmh 30.29 in1025.7 mb 0.00 in0.0 mm 0.00 in/hr0.0 mm/hr 0.00 in0.0 mm
03:30 AM 35.6°F2.0°C 26.5°F-3.1°C 69% Calm Calm 5.0 mph8.0 kmh 30.30 in1026.1 mb 0.00 in0.0 mm 0.00 in/hr0.0 mm/hr 0.00 in0.0 mm
03:40 AM 35.6°F2.0°C 26.5°F-3.1°C 69% 2.0 mph ENE3.2 kmh ENE 4.0 mph6.4 kmh 30.30 in1026.1 mb 0.00 in0.0 mm 0.00 in/hr0.0 mm/hr 0.00 in0.0 mm
03:50 AM 35.5°F1.9°C 26.4°F-3.1°C 69% 3.0 mph NE4.8 kmh NE 4.0 mph6.4 kmh 30.29 in1025.7 mb 0.00 in0.0 mm 0.00 in/hr0.0 mm/hr 0.00 in0.0 mm
04:00 AM 35.3°F1.8°C 26.5°F-3.1°C 70% Calm Calm 4.0 mph6.4 kmh 30.28 in1025.4 mb 0.00 in0.0 mm 0.00 in/hr0.0 mm/hr 0.00 in0.0 mm
04:10 AM 35.4°F1.9°C 26.3°F-3.2°C 69% 3.0 mph N4.8 kmh N 5.0 mph8.0 kmh 30.28 in1025.4 mb 0.00 in0.0 mm 0.00 in/hr0.0 mm/hr 0.00 in0.0 mm
04:20 AM 35.1°F1.7°C 26.0°F-3.3°C 69% 2.0 mph NNE3.2 kmh NNE 4.0 mph6.4 kmh 30.27 in1025.1 mb 0.00 in0.0 mm 0.00 in/hr0.0 mm/hr 0.00 in0.0 mm
04:30 AM 34.7°F1.5°C 25.6°F-3.6°C 69% 4.0 mph NE6.4 kmh NE 5.0 mph8.0 kmh 30.27 in1025.1 mb 0.00 in0.0 mm 0.00 in/hr0.0 mm/hr 0.00 in0.0 mm
04:40 AM 34.3°F1.3°C 25.6°F-3.6°C 70% Calm Calm 7.0 mph11.3 kmh 30.26 in1024.7 mb 0.00 in0.0 mm 0.00 in/hr0.0 mm/hr 0.00 in0.0 mm
04:50 AM 33.7°F0.9°C 25.0°F-3.9°C 70% Calm Calm 1.0 mph1.6 kmh 30.27 in1025.1 mb 0.00 in0.0 mm 0.00 in/hr0.0 mm/hr 0.00 in0.0 mm
05:00 AM 33.2°F0.7°C 25.2°F-3.8°C 72% Calm Calm 3.0 mph4.8 kmh 30.26 in1024.7 mb 0.00 in0.0 mm 0.00 in/hr0.0 mm/hr 0.00 in0.0 mm
05:10 AM 32.9°F0.5°C 24.9°F-3.9°C 72% Calm Calm 1.0 mph1.6 kmh 30.26 in1024.7 mb 0.00 in0.0 mm 0.00 in/hr0.0 mm/hr 0.00 in0.0 mm
05:20 AM 32.5°F0.3°C 24.8°F-4.0°C 73% Calm Calm -- 30.26 in1024.7 mb 0.00 in0.0 mm 0.00 in/hr0.0 mm/hr 0.00 in0.0 mm
05:30 AM 32.2°F0.1°C 24.9°F-3.9°C 74% Calm Calm -- 30.25 in1024.4 mb 0.00 in0.0 mm 0.00 in/hr0.0 mm/hr 0.00 in0.0 mm
05:40 AM 32.4°F0.2°C 25.1°F-3.8°C 74% Calm Calm -- 30.26 in1024.7 mb 0.00 in0.0 mm 0.00 in/hr0.0 mm/hr 0.00 in0.0 mm
05:50 AM 31.6°F-0.2°C 24.9°F-3.9°C 76% Calm Calm -- 30.25 in1024.4 mb 0.00 in0.0 mm 0.00 in/hr0.0 mm/hr 0.00 in0.0 mm
06:00 AM 30.8°F-0.7°C 24.5°F-4.2°C 77% Calm Calm -- 30.25 in1024.4 mb 0.00 in0.0 mm 0.00 in/hr0.0 mm/hr 0.00 in0.0 mm
06:10 AM 30.2°F-1.0°C 23.9°F-4.5°C 77% Calm Calm -- 30.24 in1024.0 mb 0.00 in0.0 mm 0.00 in/hr0.0 mm/hr 0.00 in0.0 mm
06:20 AM 29.5°F-1.4°C 24.1°F-4.4°C 80% Calm Calm -- 30.24 in1024.0 mb 0.00 in0.0 mm 0.00 in/hr0.0 mm/hr 0.00 in0.0 mm
06:30 AM 29.0°F-1.7°C 24.2°F-4.3°C 82% Calm Calm 1.0 mph1.6 kmh 30.23 in1023.7 mb 0.00 in0.0 mm 0.00 in/hr0.0 mm/hr 0.00 in0.0 mm
06:40 AM 29.2°F-1.6°C 24.4°F-4.2°C 82% 1.0 mph E1.6 kmh E 1.0 mph1.6 kmh 30.23 in1023.7 mb 0.00 in0.0 mm 0.00 in/hr0.0 mm/hr 0.00 in0.0 mm
06:50 AM 30.2°F-1.0°C 24.8°F-4.0°C 80% Calm Calm -- 30.23 in1023.7 mb 0.00 in0.0 mm 0.00 in/hr0.0 mm/hr 0.00 in0.0 mm
07:00 AM 30.3°F-0.9°C 24.9°F-3.9°C 80% 3.0 mph E4.8 kmh E 3.0 mph4.8 kmh 30.23 in1023.7 mb 0.00 in0.0 mm 0.00 in/hr0.0 mm/hr 0.00 in0.0 mm
07:10 AM 30.1°F-1.1°C 25.0°F-3.9°C 81% 3.0 mph NE4.8 kmh NE 4.0 mph6.4 kmh 30.23 in1023.7 mb 0.00 in0.0 mm 0.00 in/hr0.0 mm/hr 0.00 in0.0 mm
07:20 AM 31.1°F-0.5°C 25.1°F-3.8°C 78% 2.0 mph NNE3.2 kmh NNE 3.0 mph4.8 kmh 30.24 in1024.0 mb 0.00 in0.0 mm 0.00 in/hr0.0 mm/hr 0.00 in0.0 mm
07:30 AM 30.1°F-1.1°C 24.1°F-4.4°C 78% 2.0 mph NNE3.2 kmh NNE 3.0 mph4.8 kmh 30.24 in1024.0 mb 0.00 in0.0 mm 0.00 in/hr0.0 mm/hr 0.00 in0.0 mm
07:40 AM 29.4°F-1.4°C 24.6°F-4.1°C 82% 3.0 mph N4.8 kmh N 5.0 mph8.0 kmh 30.24 in1024.0 mb 0.00 in0.0 mm 0.00 in/hr0.0 mm/hr 0.00 in0.0 mm
07:50 AM 29.7°F-1.3°C 25.2°F-3.8°C 83% 4.0 mph N6.4 kmh N 7.0 mph11.3 kmh 30.24 in1024.0 mb 0.00 in0.0 mm 0.00 in/hr0.0 mm/hr 0.00 in0.0 mm
08:00 AM 29.9°F-1.2°C 25.1°F-3.8°C 82% 2.0 mph N3.2 kmh N 6.0 mph9.7 kmh 30.24 in1024.0 mb 0.00 in0.0 mm 0.00 in/hr0.0 mm/hr 0.00 in0.0 mm
08:10 AM 29.7°F-1.3°C 25.2°F-3.8°C 83% 4.0 mph NNE6.4 kmh NNE 5.0 mph8.0 kmh 30.24 in1024.0 mb 0.00 in0.0 mm 0.00 in/hr0.0 mm/hr 0.00 in0.0 mm
08:20 AM 30.1°F-1.1°C 25.3°F-3.7°C 82% Calm Calm 3.0 mph4.8 kmh 30.24 in1024.0 mb 0.00 in0.0 mm 0.00 in/hr0.0 mm/hr 0.00 in0.0 mm
08:30 AM 30.3°F-0.9°C 25.5°F-3.6°C 82% Calm Calm 2.0 mph3.2 kmh 30.24 in1024.0 mb 0.00 in0.0 mm 0.00 in/hr0.0 mm/hr 0.00 in0.0 mm
08:50 AM 32.0°F0.0°C 26.5°F-3.1°C 80% Calm Calm 4.0 mph6.4 kmh 30.25 in1024.4 mb 0.00 in0.0 mm 0.00 in/hr0.0 mm/hr 0.00 in0.0 mm
09:00 AM 32.1°F0.1°C 26.6°F-3.0°C 80% Calm Calm 1.0 mph1.6 kmh 30.24 in1024.0 mb 0.00 in0.0 mm 0.00 in/hr0.0 mm/hr 0.00 in0.0 mm
09:10 AM 32.0°F0.0°C 26.5°F-3.1°C 80% Calm Calm -- 30.25 in1024.4 mb 0.00 in0.0 mm 0.00 in/hr0.0 mm/hr 0.00 in0.0 mm
09:20 AM 31.9°F-0.1°C 26.4°F-3.1°C 80% Calm Calm -- 30.25 in1024.4 mb 0.00 in0.0 mm 0.00 in/hr0.0 mm/hr 0.00 in0.0 mm
09:30 AM 33.3°F0.7°C 27.5°F-2.5°C 79% Calm Calm 2.0 mph3.2 kmh 30.25 in1024.4 mb 0.00 in0.0 mm 0.00 in/hr0.0 mm/hr 0.00 in0.0 mm
09:40 AM 34.6°F1.4°C 28.1°F-2.2°C 77% 2.0 mph N3.2 kmh N 2.0 mph3.2 kmh 30.25 in1024.4 mb 0.00 in0.0 mm 0.00 in/hr0.0 mm/hr 0.00 in0.0 mm
09:50 AM 35.7°F2.1°C 27.9°F-2.3°C 73% 1.0 mph N1.6 kmh N 3.0 mph4.8 kmh 30.25 in1024.4 mb 0.00 in0.0 mm 0.00 in/hr0.0 mm/hr 0.00 in0.0 mm
10:01 AM 36.5°F2.5°C 28.0°F-2.2°C 71% 1.0 mph N1.6 kmh N 2.0 mph3.2 kmh 30.25 in1024.4 mb 0.00 in0.0 mm 0.00 in/hr0.0 mm/hr 0.00 in0.0 mm
10:10 AM 37.1°F2.8°C 27.9°F-2.3°C 69% Calm Calm 3.0 mph4.8 kmh 30.25 in1024.4 mb 0.00 in0.0 mm 0.00 in/hr0.0 mm/hr 0.00 in0.0 mm
10:20 AM 38.0°F3.3°C 28.0°F-2.2°C 67% 1.0 mph SE1.6 kmh SE 3.0 mph4.8 kmh 30.24 in1024.0 mb 0.00 in0.0 mm 0.00 in/hr0.0 mm/hr 0.00 in0.0 mm
10:30 AM 38.5°F3.6°C 29.2°F-1.6°C 69% Calm Calm 2.0 mph3.2 kmh 30.24 in1024.0 mb 0.00 in0.0 mm 0.00 in/hr0.0 mm/hr 0.00 in0.0 mm
10:40 AM 39.1°F3.9°C 28.3°F-2.1°C 65% 1.0 mph SSW1.6 kmh SSW 3.0 mph4.8 kmh 30.23 in1023.7 mb 0.00 in0.0 mm 0.00 in/hr0.0 mm/hr 0.00 in0.0 mm
10:50 AM 39.8°F4.3°C 27.9°F-2.3°C 62% Calm Calm 5.0 mph8.0 kmh 30.23 in1023.7 mb 0.00 in0.0 mm 0.00 in/hr0.0 mm/hr 0.00 in0.0 mm
11:00 AM 40.5°F4.7°C 28.1°F-2.2°C 61% 4.0 mph SSE6.4 kmh SSE 4.0 mph6.4 kmh 30.24 in1024.0 mb 0.00 in0.0 mm 0.00 in/hr0.0 mm/hr 0.00 in0.0 mm
11:10 AM 41.1°F5.1°C 29.1°F-1.6°C 62% Calm Calm 3.0 mph4.8 kmh 30.23 in1023.7 mb 0.00 in0.0 mm 0.00 in/hr0.0 mm/hr 0.00 in0.0 mm
11:20 AM 41.1°F5.1°C 28.3°F-2.1°C 60% 1.0 mph SSW1.6 kmh SSW 6.0 mph9.7 kmh 30.23 in1023.7 mb 0.00 in0.0 mm 0.00 in/hr0.0 mm/hr 0.00 in0.0 mm
11:31 AM 41.7°F5.4°C 29.3°F-1.5°C 61% Calm Calm 2.0 mph3.2 kmh 30.22 in1023.4 mb 0.00 in0.0 mm 0.00 in/hr0.0 mm/hr 0.00 in0.0 mm
11:40 AM 42.6°F5.9°C 29.7°F-1.3°C 60% 2.0 mph WSW3.2 kmh WSW 3.0 mph4.8 kmh 30.21 in1023.0 mb 0.00 in0.0 mm 0.00 in/hr0.0 mm/hr 0.00 in0.0 mm
11:50 AM 43.2°F6.2°C 29.9°F-1.2°C 59% 3.0 mph SW4.8 kmh SW 4.0 mph6.4 kmh 30.21 in1023.0 mb 0.00 in0.0 mm 0.00 in/hr0.0 mm/hr 0.00 in0.0 mm
12:01 PM 43.8°F6.6°C 30.0°F-1.1°C 58% 3.0 mph SW4.8 kmh SW 3.0 mph4.8 kmh 30.20 in1022.7 mb 0.00 in0.0 mm 0.00 in/hr0.0 mm/hr 0.00 in0.0 mm
12:10 PM 44.1°F6.7°C 29.0°F-1.7°C 55% Calm Calm 4.0 mph6.4 kmh 30.19 in1022.4 mb 0.00 in0.0 mm 0.00 in/hr0.0 mm/hr 0.00 in0.0 mm
12:20 PM 45.0°F7.2°C 28.9°F-1.7°C 53% Calm Calm 5.0 mph8.0 kmh 30.19 in1022.4 mb 0.00 in0.0 mm 0.00 in/hr0.0 mm/hr 0.00 in0.0 mm
12:30 PM 46.2°F7.9°C 29.6°F-1.3°C 52% 2.0 mph SW3.2 kmh SW 4.0 mph6.4 kmh 30.18 in1022.0 mb 0.00 in0.0 mm 0.00 in/hr0.0 mm/hr 0.00 in0.0 mm
12:40 PM 46.8°F8.2°C 29.2°F-1.6°C 50% 4.0 mph WSW6.4 kmh WSW 4.0 mph6.4 kmh 30.18 in1022.0 mb 0.00 in0.0 mm 0.00 in/hr0.0 mm/hr 0.00 in0.0 mm
12:50 PM 46.7°F8.2°C 29.1°F-1.6°C 50% Calm Calm 2.0 mph3.2 kmh 30.17 in1021.7 mb 0.00 in0.0 mm 0.00 in/hr0.0 mm/hr 0.00 in0.0 mm
01:00 PM 47.2°F8.4°C 29.5°F-1.4°C 50% 1.0 mph W1.6 kmh W 4.0 mph6.4 kmh 30.17 in1021.7 mb 0.00 in0.0 mm 0.00 in/hr0.0 mm/hr 0.00 in0.0 mm
01:10 PM 47.2°F8.4°C 26.4°F-3.1°C 44% Calm Calm 5.0 mph8.0 kmh 30.16 in1021.3 mb 0.00 in0.0 mm 0.00 in/hr0.0 mm/hr 0.00 in0.0 mm
01:20 PM 47.8°F8.8°C 27.0°F-2.8°C 44% Calm Calm 5.0 mph8.0 kmh 30.15 in1021.0 mb 0.00 in0.0 mm 0.00 in/hr0.0 mm/hr 0.00 in0.0 mm
01:30 PM 48.3°F9.1°C 26.3°F-3.2°C 42% Calm Calm 5.0 mph8.0 kmh 30.15 in1021.0 mb 0.00 in0.0 mm 0.00 in/hr0.0 mm/hr 0.00 in0.0 mm
01:40 PM 48.9°F9.4°C 27.4°F-2.6°C 43% Calm Calm 9.0 mph14.5 kmh 30.15 in1021.0 mb 0.00 in0.0 mm 0.00 in/hr0.0 mm/hr 0.00 in0.0 mm
01:50 PM 48.7°F9.3°C 27.2°F-2.7°C 43% 4.0 mph WSW6.4 kmh WSW 4.0 mph6.4 kmh 30.14 in1020.7 mb 0.00 in0.0 mm 0.00 in/hr0.0 mm/hr 0.00 in0.0 mm
02:01 PM 49.0°F9.4°C 27.5°F-2.5°C 43% Calm Calm 5.0 mph8.0 kmh 30.13 in1020.3 mb 0.00 in0.0 mm 0.00 in/hr0.0 mm/hr 0.00 in0.0 mm
02:10 PM 49.6°F9.8°C 28.6°F-1.9°C 44% 2.0 mph NNW3.2 kmh NNW 9.0 mph14.5 kmh 30.14 in1020.7 mb 0.00 in0.0 mm 0.00 in/hr0.0 mm/hr 0.00 in0.0 mm
02:20 PM 49.2°F9.6°C 26.5°F-3.1°C 41% 5.0 mph WSW8.0 kmh WSW 10.0 mph16.1 kmh 30.14 in1020.7 mb 0.00 in0.0 mm 0.00 in/hr0.0 mm/hr 0.00 in0.0 mm
02:30 PM 49.9°F9.9°C 26.6°F-3.0°C 40% 4.0 mph NW6.4 kmh NW 9.0 mph14.5 kmh 30.13 in1020.3 mb 0.00 in0.0 mm 0.00 in/hr0.0 mm/hr 0.00 in0.0 mm
02:40 PM 49.7°F9.8°C 25.1°F-3.8°C 38% 4.0 mph W6.4 kmh W 9.0 mph14.5 kmh 30.13 in1020.3 mb 0.00 in0.0 mm 0.00 in/hr0.0 mm/hr 0.00 in0.0 mm
02:50 PM 48.7°F9.3°C 24.3°F-4.3°C 38% 3.0 mph W4.8 kmh W 6.0 mph9.7 kmh 30.12 in1020.0 mb 0.00 in0.0 mm 0.00 in/hr0.0 mm/hr 0.00 in0.0 mm
03:00 PM 48.8°F9.3°C 25.0°F-3.9°C 39% 1.0 mph WNW1.6 kmh WNW 7.0 mph11.3 kmh 30.13 in1020.3 mb 0.00 in0.0 mm 0.00 in/hr0.0 mm/hr 0.00 in0.0 mm
03:10 PM 48.7°F9.3°C 25.5°F-3.6°C 40% 2.0 mph SW3.2 kmh SW 5.0 mph8.0 kmh 30.12 in1020.0 mb 0.00 in0.0 mm 0.00 in/hr0.0 mm/hr 0.00 in0.0 mm
03:20 PM 49.1°F9.5°C 25.2°F-3.8°C 39% 1.0 mph SW1.6 kmh SW 7.0 mph11.3 kmh 30.12 in1020.0 mb 0.00 in0.0 mm 0.00 in/hr0.0 mm/hr 0.00 in0.0 mm
03:30 PM 49.9°F9.9°C 25.3°F-3.7°C 38% 5.0 mph SW8.0 kmh SW 6.0 mph9.7 kmh 30.12 in1020.0 mb 0.00 in0.0 mm 0.00 in/hr0.0 mm/hr 0.00 in0.0 mm
03:40 PM 49.4°F9.7°C 24.9°F-3.9°C 38% 4.0 mph SW6.4 kmh SW 6.0 mph9.7 kmh 30.11 in1019.6 mb 0.00 in0.0 mm 0.00 in/hr0.0 mm/hr 0.00 in0.0 mm
03:50 PM 49.5°F9.7°C 25.0°F-3.9°C 38% Calm Calm 5.0 mph8.0 kmh 30.11 in1019.6 mb 0.00 in0.0 mm 0.00 in/hr0.0 mm/hr 0.00 in0.0 mm
04:01 PM 49.4°F9.7°C 24.9°F-3.9°C 38% 7.0 mph SSW11.3 kmh SSW 7.0 mph11.3 kmh 30.11 in1019.6 mb 0.00 in0.0 mm 0.00 in/hr0.0 mm/hr 0.00 in0.0 mm
04:10 PM 49.1°F9.5°C 25.8°F-3.4°C 40% 2.0 mph WSW3.2 kmh WSW 6.0 mph9.7 kmh 30.11 in1019.6 mb 0.00 in0.0 mm 0.00 in/hr0.0 mm/hr 0.00 in0.0 mm
04:20 PM 48.7°F9.3°C 24.9°F-3.9°C 39% Calm Calm 7.0 mph11.3 kmh 30.11 in1019.6 mb 0.00 in0.0 mm 0.00 in/hr0.0 mm/hr 0.00 in0.0 mm
04:30 PM 48.3°F9.1°C 24.5°F-4.2°C 39% 2.0 mph SW3.2 kmh SW 9.0 mph14.5 kmh 30.10 in1019.3 mb 0.00 in0.0 mm 0.00 in/hr0.0 mm/hr 0.00 in0.0 mm
04:40 PM 48.1°F8.9°C 24.3°F-4.3°C 39% 3.0 mph SW4.8 kmh SW 9.0 mph14.5 kmh 30.10 in1019.3 mb 0.00 in0.0 mm 0.00 in/hr0.0 mm/hr 0.00 in0.0 mm
04:50 PM 47.9°F8.8°C 24.8°F-4.0°C 40% 5.0 mph WSW8.0 kmh WSW 6.0 mph9.7 kmh 30.10 in1019.3 mb 0.00 in0.0 mm 0.00 in/hr0.0 mm/hr 0.00 in0.0 mm
05:00 PM 47.6°F8.7°C 24.5°F-4.2°C 40% 1.0 mph SSW1.6 kmh SSW 6.0 mph9.7 kmh 30.10 in1019.3 mb 0.00 in0.0 mm 0.00 in/hr0.0 mm/hr 0.00 in0.0 mm
05:10 PM 47.3°F8.5°C 24.2°F-4.3°C 40% 5.0 mph SW8.0 kmh SW 5.0 mph8.0 kmh 30.09 in1019.0 mb 0.00 in0.0 mm 0.00 in/hr0.0 mm/hr 0.00 in0.0 mm
05:20 PM 46.9°F8.3°C 23.9°F-4.5°C 40% 4.0 mph SW6.4 kmh SW 5.0 mph8.0 kmh 30.08 in1018.6 mb 0.00 in0.0 mm 0.00 in/hr0.0 mm/hr 0.00 in0.0 mm
05:30 PM 46.0°F7.8°C 24.8°F-4.0°C 43% 5.0 mph SW8.0 kmh SW 5.0 mph8.0 kmh 30.08 in1018.6 mb 0.00 in0.0 mm 0.00 in/hr0.0 mm/hr 0.00 in0.0 mm
05:40 PM 45.0°F7.2°C 23.9°F-4.5°C 43% Calm Calm 3.0 mph4.8 kmh 30.09 in1019.0 mb 0.00 in0.0 mm 0.00 in/hr0.0 mm/hr 0.00 in0.0 mm
05:50 PM 43.9°F6.6°C 23.4°F-4.8°C 44% Calm Calm 1.0 mph1.6 kmh 30.09 in1019.0 mb 0.00 in0.0 mm 0.00 in/hr0.0 mm/hr 0.00 in0.0 mm
06:00 PM 42.7°F5.9°C 23.4°F-4.8°C 46% Calm Calm 3.0 mph4.8 kmh 30.10 in1019.3 mb 0.00 in0.0 mm 0.00 in/hr0.0 mm/hr 0.00 in0.0 mm
06:10 PM 42.0°F5.6°C 23.3°F-4.8°C 47% 2.0 mph W3.2 kmh W 4.0 mph6.4 kmh 30.11 in1019.6 mb 0.00 in0.0 mm 0.00 in/hr0.0 mm/hr 0.00 in0.0 mm
06:20 PM 41.5°F5.3°C 23.3°F-4.8°C 48% Calm Calm 2.0 mph3.2 kmh 30.10 in1019.3 mb 0.00 in0.0 mm 0.00 in/hr0.0 mm/hr 0.00 in0.0 mm
06:30 PM 42.0°F5.6°C 22.7°F-5.2°C 46% 2.0 mph W3.2 kmh W 3.0 mph4.8 kmh 30.10 in1019.3 mb 0.00 in0.0 mm 0.00 in/hr0.0 mm/hr 0.00 in0.0 mm
06:40 PM 41.0°F5.0°C 22.8°F-5.1°C 48% Calm Calm 2.0 mph3.2 kmh 30.10 in1019.3 mb 0.00 in0.0 mm 0.00 in/hr0.0 mm/hr 0.00 in0.0 mm
06:50 PM 40.9°F4.9°C 23.2°F-4.9°C 49% Calm Calm 1.0 mph1.6 kmh 30.10 in1019.3 mb 0.00 in0.0 mm 0.00 in/hr0.0 mm/hr 0.00 in0.0 mm
07:00 PM 41.1°F5.1°C 22.9°F-5.1°C 48% Calm Calm -- 30.10 in1019.3 mb 0.00 in0.0 mm 0.00 in/hr0.0 mm/hr 0.00 in0.0 mm
07:10 PM 39.8°F4.3°C 23.6°F-4.7°C 52% Calm Calm 2.0 mph3.2 kmh 30.11 in1019.6 mb 0.00 in0.0 mm 0.00 in/hr0.0 mm/hr 0.00 in0.0 mm
07:20 PM 38.8°F3.8°C 23.2°F-4.9°C 53% Calm Calm 1.0 mph1.6 kmh 30.11 in1019.6 mb 0.00 in0.0 mm 0.00 in/hr0.0 mm/hr 0.00 in0.0 mm
07:30 PM 38.2°F3.4°C 23.5°F-4.7°C 55% Calm Calm 1.0 mph1.6 kmh 30.11 in1019.6 mb 0.00 in0.0 mm 0.00 in/hr0.0 mm/hr 0.00 in0.0 mm
07:40 PM 37.8°F3.2°C 23.1°F-4.9°C 55% Calm Calm -- 30.11 in1019.6 mb 0.00 in0.0 mm 0.00 in/hr0.0 mm/hr 0.00 in0.0 mm
07:50 PM 37.1°F2.8°C 22.9°F-5.1°C 56% Calm Calm -- 30.11 in1019.6 mb 0.00 in0.0 mm 0.00 in/hr0.0 mm/hr 0.00 in0.0 mm
08:01 PM 37.9°F3.3°C 23.6°F-4.7°C 56% Calm Calm -- 30.11 in1019.6 mb 0.00 in0.0 mm 0.00 in/hr0.0 mm/hr 0.00 in0.0 mm
08:10 PM 36.5°F2.5°C 23.1°F-4.9°C 58% Calm Calm 1.0 mph1.6 kmh 30.11 in1019.6 mb 0.00 in0.0 mm 0.00 in/hr0.0 mm/hr 0.00 in0.0 mm
08:20 PM 36.4°F2.4°C 23.5°F-4.7°C 59% Calm Calm 1.0 mph1.6 kmh 30.11 in1019.6 mb 0.00 in0.0 mm 0.00 in/hr0.0 mm/hr 0.00 in0.0 mm
08:30 PM 36.3°F2.4°C 23.4°F-4.8°C 59% Calm Calm 2.0 mph3.2 kmh 30.11 in1019.6 mb 0.00 in0.0 mm 0.00 in/hr0.0 mm/hr 0.00 in0.0 mm
08:40 PM 37.1°F2.8°C 23.3°F-4.8°C 57% Calm Calm -- 30.11 in1019.6 mb 0.00 in0.0 mm 0.00 in/hr0.0 mm/hr 0.00 in0.0 mm
08:50 PM 36.3°F2.4°C 23.8°F-4.6°C 60% Calm Calm 1.0 mph1.6 kmh 30.11 in1019.6 mb 0.00 in0.0 mm 0.00 in/hr0.0 mm/hr 0.00 in0.0 mm
09:00 PM 36.2°F2.3°C 23.7°F-4.6°C 60% Calm Calm 1.0 mph1.6 kmh 30.11 in1019.6 mb 0.00 in0.0 mm 0.00 in/hr0.0 mm/hr 0.00 in0.0 mm
09:10 PM 36.3°F2.4°C 23.4°F-4.8°C 59% Calm Calm 2.0 mph3.2 kmh 30.11 in1019.6 mb 0.00 in0.0 mm 0.00 in/hr0.0 mm/hr 0.00 in0.0 mm
09:20 PM 34.8°F1.6°C 22.7°F-5.2°C 61% Calm Calm -- 30.11 in1019.6 mb 0.00 in0.0 mm 0.00 in/hr0.0 mm/hr 0.00 in0.0 mm
09:30 PM 34.5°F1.4°C 23.6°F-4.7°C 64% Calm Calm 1.0 mph1.6 kmh 30.11 in1019.6 mb 0.00 in0.0 mm 0.00 in/hr0.0 mm/hr 0.00 in0.0 mm
09:40 PM 34.0°F1.1°C 23.5°F-4.7°C 65% Calm Calm 1.0 mph1.6 kmh 30.10 in1019.3 mb 0.00 in0.0 mm 0.00 in/hr0.0 mm/hr 0.00 in0.0 mm
09:50 PM 35.0°F1.7°C 23.7°F-4.6°C 63% Calm Calm 1.0 mph1.6 kmh 30.10 in1019.3 mb 0.00 in0.0 mm 0.00 in/hr0.0 mm/hr 0.00 in0.0 mm
10:00 PM 34.9°F1.6°C 23.6°F-4.7°C 63% Calm Calm -- 30.10 in1019.3 mb 0.00 in0.0 mm 0.00 in/hr0.0 mm/hr 0.00 in0.0 mm
10:10 PM 36.1°F2.3°C 23.6°F-4.7°C 60% 1.0 mph WSW1.6 kmh WSW 3.0 mph4.8 kmh 30.11 in1019.6 mb 0.00 in0.0 mm 0.00 in/hr0.0 mm/hr 0.00 in0.0 mm
10:20 PM 36.7°F2.6°C 23.7°F-4.6°C 59% Calm Calm 6.0 mph9.7 kmh 30.11 in1019.6 mb 0.00 in0.0 mm 0.00 in/hr0.0 mm/hr 0.00 in0.0 mm
10:30 PM 36.7°F2.6°C 24.1°F-4.4°C 60% Calm Calm -- 30.11 in1019.6 mb 0.00 in0.0 mm 0.00 in/hr0.0 mm/hr 0.00 in0.0 mm
10:40 PM 36.5°F2.5°C 24.0°F-4.4°C 60% 1.0 mph SW1.6 kmh SW 4.0 mph6.4 kmh 30.11 in1019.6 mb 0.00 in0.0 mm 0.00 in/hr0.0 mm/hr 0.00 in0.0 mm
10:50 PM 36.7°F2.6°C 24.1°F-4.4°C 60% 2.0 mph WSW3.2 kmh WSW 3.0 mph4.8 kmh 30.11 in1019.6 mb 0.00 in0.0 mm 0.00 in/hr0.0 mm/hr 0.00 in0.0 mm
11:00 PM 37.0°F2.8°C 24.4°F-4.2°C 60% Calm Calm 5.0 mph8.0 kmh 30.11 in1019.6 mb 0.00 in0.0 mm 0.00 in/hr0.0 mm/hr 0.00 in0.0 mm
11:10 PM 37.0°F2.8°C 24.4°F-4.2°C 60% 1.0 mph SW1.6 kmh SW 5.0 mph8.0 kmh 30.11 in1019.6 mb 0.00 in0.0 mm 0.00 in/hr0.0 mm/hr 0.00 in0.0 mm
11:20 PM 36.3°F2.4°C 24.2°F-4.3°C 61% Calm Calm 3.0 mph4.8 kmh 30.11 in1019.6 mb 0.00 in0.0 mm 0.00 in/hr0.0 mm/hr 0.00 in0.0 mm
11:30 PM 35.8°F2.1°C 24.1°F-4.4°C 62% Calm Calm 4.0 mph6.4 kmh 30.11 in1019.6 mb 0.00 in0.0 mm 0.00 in/hr0.0 mm/hr 0.00 in0.0 mm
11:40 PM 35.7°F2.1°C 24.4°F-4.2°C 63% Calm Calm 1.0 mph1.6 kmh 30.11 in1019.6 mb 0.00 in0.0 mm 0.00 in/hr0.0 mm/hr 0.00 in0.0 mm
11:50 PM 35.4°F1.9°C 24.5°F-4.2°C 64% Calm Calm 3.0 mph4.8 kmh 30.11 in1019.6 mb 0.00 in0.0 mm 0.00 in/hr0.0 mm/hr 0.00 in0.0 mm